sensor_id;sensor_type;location;lat;lon;timestamp;temperature;humidity
44723;DHT22;30451;48.638;10.624;2023-06-22T00:01:49;28.90;50.70
44723;DHT22;30451;48.638;10.624;2023-06-22T00:04:14;28.80;50.60
44723;DHT22;30451;48.638;10.624;2023-06-22T00:06:40;28.80;50.60
44723;DHT22;30451;48.638;10.624;2023-06-22T00:09:05;28.90;51.20
44723;DHT22;30451;48.638;10.624;2023-06-22T00:11:33;28.80;50.60
44723;DHT22;30451;48.638;10.624;2023-06-22T00:13:59;28.80;50.60
44723;DHT22;30451;48.638;10.624;2023-06-22T00:16:25;28.90;50.60
44723;DHT22;30451;48.638;10.624;2023-06-22T00:18:50;28.90;50.60
44723;DHT22;30451;48.638;10.624;2023-06-22T00:21:16;28.90;50.60
44723;DHT22;30451;48.638;10.624;2023-06-22T00:23:41;28.80;50.50
44723;DHT22;30451;48.638;10.624;2023-06-22T00:26:07;28.80;50.50
44723;DHT22;30451;48.638;10.624;2023-06-22T00:28:33;28.80;50.50
44723;DHT22;30451;48.638;10.624;2023-06-22T00:30:59;28.80;50.40
44723;DHT22;30451;48.638;10.624;2023-06-22T00:33:26;28.90;50.50
44723;DHT22;30451;48.638;10.624;2023-06-22T00:35:51;28.90;50.50
44723;DHT22;30451;48.638;10.624;2023-06-22T00:38:18;28.80;50.40
44723;DHT22;30451;48.638;10.624;2023-06-22T00:40:44;28.80;50.40
44723;DHT22;30451;48.638;10.624;2023-06-22T00:43:10;28.90;50.50
44723;DHT22;30451;48.638;10.624;2023-06-22T00:45:35;28.80;50.40
44723;DHT22;30451;48.638;10.624;2023-06-22T00:48:01;28.80;50.40
44723;DHT22;30451;48.638;10.624;2023-06-22T00:50:28;28.80;50.40
44723;DHT22;30451;48.638;10.624;2023-06-22T00:52:58;28.80;50.40
44723;DHT22;30451;48.638;10.624;2023-06-22T00:55:24;28.80;50.40
44723;DHT22;30451;48.638;10.624;2023-06-22T00:57:51;28.90;50.40
44723;DHT22;30451;48.638;10.624;2023-06-22T01:00:22;28.80;50.30
44723;DHT22;30451;48.638;10.624;2023-06-22T01:02:49;28.80;50.30
44723;DHT22;30451;48.638;10.624;2023-06-22T01:05:17;28.80;50.30
44723;DHT22;30451;48.638;10.624;2023-06-22T01:12:59;28.80;50.30
44723;DHT22;30451;48.638;10.624;2023-06-22T01:17:52;28.80;50.20
44723;DHT22;30451;48.638;10.624;2023-06-22T01:20:18;28.80;50.30
44723;DHT22;30451;48.638;10.624;2023-06-22T01:22:57;28.80;50.20
44723;DHT22;30451;48.638;10.624;2023-06-22T01:25:31;28.80;50.20
44723;DHT22;30451;48.638;10.624;2023-06-22T01:28:03;28.80;50.20
44723;DHT22;30451;48.638;10.624;2023-06-22T01:30:30;28.80;50.20
44723;DHT22;30451;48.638;10.624;2023-06-22T01:32:59;28.80;50.20
44723;DHT22;30451;48.638;10.624;2023-06-22T01:35:26;28.80;50.20
44723;DHT22;30451;48.638;10.624;2023-06-22T01:37:52;28.80;50.20
44723;DHT22;30451;48.638;10.624;2023-06-22T01:40:18;28.80;50.20
44723;DHT22;30451;48.638;10.624;2023-06-22T01:42:44;28.80;50.20
44723;DHT22;30451;48.638;10.624;2023-06-22T01:45:10;28.80;50.10
44723;DHT22;30451;48.638;10.624;2023-06-22T01:47:36;28.80;50.10
44723;DHT22;30451;48.638;10.624;2023-06-22T01:50:02;28.80;50.10
44723;DHT22;30451;48.638;10.624;2023-06-22T01:52:27;28.80;50.10
44723;DHT22;30451;48.638;10.624;2023-06-22T01:54:53;28.80;50.10
44723;DHT22;30451;48.638;10.624;2023-06-22T01:57:19;28.80;50.10
44723;DHT22;30451;48.638;10.624;2023-06-22T02:02:16;28.80;50.10
44723;DHT22;30451;48.638;10.624;2023-06-22T02:04:47;28.80;50.00
44723;DHT22;30451;48.638;10.624;2023-06-22T02:07:14;28.80;50.00
44723;DHT22;30451;48.638;10.624;2023-06-22T02:09:42;28.80;50.00
44723;DHT22;30451;48.638;10.624;2023-06-22T02:12:08;28.80;50.10
44723;DHT22;30451;48.638;10.624;2023-06-22T02:14:36;28.80;50.00
44723;DHT22;30451;48.638;10.624;2023-06-22T02:17:02;28.80;50.00
44723;DHT22;30451;48.638;10.624;2023-06-22T02:19:28;28.70;49.90
44723;DHT22;30451;48.638;10.624;2023-06-22T02:21:58;28.80;50.00
44723;DHT22;30451;48.638;10.624;2023-06-22T02:24:23;28.70;49.90
44723;DHT22;30451;48.638;10.624;2023-06-22T02:26:49;28.70;49.90
44723;DHT22;30451;48.638;10.624;2023-06-22T02:29:15;28.70;49.90
44723;DHT22;30451;48.638;10.624;2023-06-22T02:31:40;28.70;49.90
44723;DHT22;30451;48.638;10.624;2023-06-22T02:34:06;28.70;49.90
44723;DHT22;30451;48.638;10.624;2023-06-22T02:36:31;28.70;50.40
44723;DHT22;30451;48.638;10.624;2023-06-22T02:38:58;28.70;49.90
44723;DHT22;30451;48.638;10.624;2023-06-22T02:41:26;28.70;49.90
44723;DHT22;30451;48.638;10.624;2023-06-22T02:43:52;28.70;49.90
44723;DHT22;30451;48.638;10.624;2023-06-22T02:46:17;28.70;49.90
44723;DHT22;30451;48.638;10.624;2023-06-22T02:48:43;28.70;49.80
44723;DHT22;30451;48.638;10.624;2023-06-22T02:51:08;28.70;49.80
44723;DHT22;30451;48.638;10.624;2023-06-22T02:53:34;28.70;49.80
44723;DHT22;30451;48.638;10.624;2023-06-22T02:56:01;28.70;49.80
44723;DHT22;30451;48.638;10.624;2023-06-22T02:58:26;28.70;49.80
44723;DHT22;30451;48.638;10.624;2023-06-22T03:00:52;28.70;49.80
44723;DHT22;30451;48.638;10.624;2023-06-22T03:03:18;28.70;49.80
44723;DHT22;30451;48.638;10.624;2023-06-22T03:05:44;28.70;49.80
44723;DHT22;30451;48.638;10.624;2023-06-22T03:08:09;28.70;49.80
44723;DHT22;30451;48.638;10.624;2023-06-22T03:10:35;28.70;49.80
44723;DHT22;30451;48.638;10.624;2023-06-22T03:13:00;28.70;49.80
44723;DHT22;30451;48.638;10.624;2023-06-22T03:15:26;28.70;49.80
44723;DHT22;30451;48.638;10.624;2023-06-22T03:17:54;28.70;49.70
44723;DHT22;30451;48.638;10.624;2023-06-22T03:20:20;28.70;49.70
44723;DHT22;30451;48.638;10.624;2023-06-22T03:22:45;28.70;49.70
44723;DHT22;30451;48.638;10.624;2023-06-22T03:25:11;28.70;49.70
44723;DHT22;30451;48.638;10.624;2023-06-22T03:27:38;28.70;49.70
44723;DHT22;30451;48.638;10.624;2023-06-22T03:30:04;28.70;49.70
44723;DHT22;30451;48.638;10.624;2023-06-22T03:32:30;28.70;49.70
44723;DHT22;30451;48.638;10.624;2023-06-22T03:34:55;28.70;49.70
44723;DHT22;30451;48.638;10.624;2023-06-22T03:37:24;28.70;49.70
44723;DHT22;30451;48.638;10.624;2023-06-22T03:39:50;28.70;49.70
44723;DHT22;30451;48.638;10.624;2023-06-22T03:42:15;28.70;49.70
44723;DHT22;30451;48.638;10.624;2023-06-22T03:44:41;28.70;49.70
44723;DHT22;30451;48.638;10.624;2023-06-22T03:47:06;28.60;50.10
44723;DHT22;30451;48.638;10.624;2023-06-22T03:49:33;28.70;49.60
44723;DHT22;30451;48.638;10.624;2023-06-22T03:51:59;28.70;49.60
44723;DHT22;30451;48.638;10.624;2023-06-22T03:54:25;28.70;49.60
44723;DHT22;30451;48.638;10.624;2023-06-22T03:56:50;28.70;49.60
44723;DHT22;30451;48.638;10.624;2023-06-22T03:59:16;28.60;49.50
44723;DHT22;30451;48.638;10.624;2023-06-22T04:01:41;28.70;49.60
44723;DHT22;30451;48.638;10.624;2023-06-22T04:04:07;28.60;49.50
44723;DHT22;30451;48.638;10.624;2023-06-22T04:06:32;28.70;49.60
44723;DHT22;30451;48.638;10.624;2023-06-22T04:08:59;28.70;49.60
44723;DHT22;30451;48.638;10.624;2023-06-22T04:11:26;28.60;49.50
44723;DHT22;30451;48.638;10.624;2023-06-22T04:13:51;28.70;49.60
44723;DHT22;30451;48.638;10.624;2023-06-22T04:16:17;28.60;49.50
44723;DHT22;30451;48.638;10.624;2023-06-22T04:18:42;28.70;49.60
44723;DHT22;30451;48.638;10.624;2023-06-22T04:21:08;28.60;49.50
44723;DHT22;30451;48.638;10.624;2023-06-22T04:23:33;28.60;49.50
44723;DHT22;30451;48.638;10.624;2023-06-22T04:25:59;28.60;49.60
44723;DHT22;30451;48.638;10.624;2023-06-22T04:28:24;28.70;49.60
44723;DHT22;30451;48.638;10.624;2023-06-22T04:30:50;28.60;49.50
44723;DHT22;30451;48.638;10.624;2023-06-22T04:33:16;28.70;49.60
44723;DHT22;30451;48.638;10.624;2023-06-22T04:35:42;28.60;49.50
44723;DHT22;30451;48.638;10.624;2023-06-22T04:38:11;28.70;49.50
44723;DHT22;30451;48.638;10.624;2023-06-22T04:40:39;28.70;49.50
44723;DHT22;30451;48.638;10.624;2023-06-22T04:43:05;28.60;49.50
44723;DHT22;30451;48.638;10.624;2023-06-22T04:45:32;28.70;49.50
44723;DHT22;30451;48.638;10.624;2023-06-22T04:47:57;28.70;49.50
44723;DHT22;30451;48.638;10.624;2023-06-22T04:50:23;28.60;49.50
44723;DHT22;30451;48.638;10.624;2023-06-22T04:52:49;28.70;49.50
44723;DHT22;30451;48.638;10.624;2023-06-22T04:55:14;28.60;49.40
44723;DHT22;30451;48.638;10.624;2023-06-22T04:57:46;28.70;49.50
44723;DHT22;30451;48.638;10.624;2023-06-22T05:00:18;28.60;49.40
44723;DHT22;30451;48.638;10.624;2023-06-22T05:02:48;28.60;49.50
44723;DHT22;30451;48.638;10.624;2023-06-22T05:05:14;28.60;49.40
44723;DHT22;30451;48.638;10.624;2023-06-22T05:07:41;28.60;49.40
44723;DHT22;30451;48.638;10.624;2023-06-22T05:10:08;28.60;49.40
44723;DHT22;30451;48.638;10.624;2023-06-22T05:12:34;28.60;49.40
44723;DHT22;30451;48.638;10.624;2023-06-22T05:15:00;28.60;49.40
44723;DHT22;30451;48.638;10.624;2023-06-22T05:17:26;28.60;49.40
44723;DHT22;30451;48.638;10.624;2023-06-22T05:19:52;28.60;49.40
44723;DHT22;30451;48.638;10.624;2023-06-22T05:22:18;28.60;49.40
44723;DHT22;30451;48.638;10.624;2023-06-22T05:24:43;28.60;49.40
44723;DHT22;30451;48.638;10.624;2023-06-22T05:27:09;28.60;49.40
44723;DHT22;30451;48.638;10.624;2023-06-22T05:29:36;28.60;49.40
44723;DHT22;30451;48.638;10.624;2023-06-22T05:32:01;28.60;49.40
44723;DHT22;30451;48.638;10.624;2023-06-22T05:34:27;28.60;49.40
44723;DHT22;30451;48.638;10.624;2023-06-22T05:36:52;28.60;49.40
44723;DHT22;30451;48.638;10.624;2023-06-22T05:39:18;28.60;49.40
44723;DHT22;30451;48.638;10.624;2023-06-22T05:41:44;28.60;49.50
44723;DHT22;30451;48.638;10.624;2023-06-22T05:44:10;28.60;49.50
44723;DHT22;30451;48.638;10.624;2023-06-22T05:46:36;28.60;49.40
44723;DHT22;30451;48.638;10.624;2023-06-22T05:49:01;28.60;49.40
44723;DHT22;30451;48.638;10.624;2023-06-22T05:51:27;28.60;49.50
44723;DHT22;30451;48.638;10.624;2023-06-22T05:53:52;28.60;49.80
44723;DHT22;30451;48.638;10.624;2023-06-22T05:56:18;28.60;50.60
44723;DHT22;30451;48.638;10.624;2023-06-22T05:58:44;28.60;50.00
44723;DHT22;30451;48.638;10.624;2023-06-22T06:01:09;28.60;49.70
44723;DHT22;30451;48.638;10.624;2023-06-22T06:03:35;28.60;49.60
44723;DHT22;30451;48.638;10.624;2023-06-22T06:06:06;28.70;49.60
44723;DHT22;30451;48.638;10.624;2023-06-22T06:08:32;28.60;49.60
44723;DHT22;30451;48.638;10.624;2023-06-22T06:10:57;28.60;49.50
44723;DHT22;30451;48.638;10.624;2023-06-22T06:13:23;28.60;49.50
44723;DHT22;30451;48.638;10.624;2023-06-22T06:15:48;28.70;49.70
44723;DHT22;30451;48.638;10.624;2023-06-22T06:18:16;28.60;49.60
44723;DHT22;30451;48.638;10.624;2023-06-22T06:20:42;28.70;49.70
44723;DHT22;30451;48.638;10.624;2023-06-22T06:23:07;28.60;49.60
44723;DHT22;30451;48.638;10.624;2023-06-22T06:25:33;28.60;49.60
44723;DHT22;30451;48.638;10.624;2023-06-22T06:27:59;28.60;49.50
44723;DHT22;30451;48.638;10.624;2023-06-22T06:30:24;28.60;49.50
44723;DHT22;30451;48.638;10.624;2023-06-22T06:32:50;28.60;49.50
44723;DHT22;30451;48.638;10.624;2023-06-22T06:35:15;28.60;49.60
44723;DHT22;30451;48.638;10.624;2023-06-22T06:37:42;28.60;49.60
44723;DHT22;30451;48.638;10.624;2023-06-22T06:40:09;28.60;49.60
44723;DHT22;30451;48.638;10.624;2023-06-22T06:42:38;28.60;49.60
44723;DHT22;30451;48.638;10.624;2023-06-22T06:45:06;28.60;49.50
44723;DHT22;30451;48.638;10.624;2023-06-22T06:47:31;28.60;49.50
44723;DHT22;30451;48.638;10.624;2023-06-22T06:49:57;28.60;49.50
44723;DHT22;30451;48.638;10.624;2023-06-22T06:52:23;28.60;49.50
44723;DHT22;30451;48.638;10.624;2023-06-22T06:54:48;28.60;49.50
44723;DHT22;30451;48.638;10.624;2023-06-22T06:57:14;28.60;49.50
44723;DHT22;30451;48.638;10.624;2023-06-22T06:59:40;28.60;49.50
44723;DHT22;30451;48.638;10.624;2023-06-22T07:02:06;28.60;49.50
44723;DHT22;30451;48.638;10.624;2023-06-22T07:04:32;28.60;49.50
44723;DHT22;30451;48.638;10.624;2023-06-22T07:06:58;28.60;49.50
44723;DHT22;30451;48.638;10.624;2023-06-22T07:09:24;28.60;49.50
44723;DHT22;30451;48.638;10.624;2023-06-22T07:11:49;28.60;49.50
44723;DHT22;30451;48.638;10.624;2023-06-22T07:14:15;28.60;49.50
44723;DHT22;30451;48.638;10.624;2023-06-22T07:16:40;28.60;49.50
44723;DHT22;30451;48.638;10.624;2023-06-22T07:19:07;28.60;49.50
44723;DHT22;30451;48.638;10.624;2023-06-22T07:21:32;28.60;49.50
44723;DHT22;30451;48.638;10.624;2023-06-22T07:23:58;28.60;49.50
44723;DHT22;30451;48.638;10.624;2023-06-22T07:26:23;28.60;49.50
44723;DHT22;30451;48.638;10.624;2023-06-22T07:28:49;28.60;49.50
44723;DHT22;30451;48.638;10.624;2023-06-22T07:31:16;28.60;49.50
44723;DHT22;30451;48.638;10.624;2023-06-22T07:33:41;28.60;49.50
44723;DHT22;30451;48.638;10.624;2023-06-22T07:36:07;28.60;49.50
44723;DHT22;30451;48.638;10.624;2023-06-22T07:38:33;28.50;49.40
44723;DHT22;30451;48.638;10.624;2023-06-22T07:41:00;28.50;49.50
44723;DHT22;30451;48.638;10.624;2023-06-22T07:43:25;28.50;49.40
44723;DHT22;30451;48.638;10.624;2023-06-22T07:45:51;28.50;49.50
44723;DHT22;30451;48.638;10.624;2023-06-22T07:48:20;28.50;49.50
44723;DHT22;30451;48.638;10.624;2023-06-22T07:50:46;28.50;49.50
44723;DHT22;30451;48.638;10.624;2023-06-22T07:53:12;28.50;49.50
44723;DHT22;30451;48.638;10.624;2023-06-22T07:55:37;28.50;49.50
44723;DHT22;30451;48.638;10.624;2023-06-22T07:58:03;28.50;49.50
44723;DHT22;30451;48.638;10.624;2023-06-22T08:00:28;28.50;49.50
44723;DHT22;30451;48.638;10.624;2023-06-22T08:02:54;28.50;49.50
44723;DHT22;30451;48.638;10.624;2023-06-22T08:05:19;28.50;49.50
44723;DHT22;30451;48.638;10.624;2023-06-22T08:07:45;28.50;49.50
44723;DHT22;30451;48.638;10.624;2023-06-22T08:10:11;28.50;49.50
44723;DHT22;30451;48.638;10.624;2023-06-22T08:12:37;28.50;49.50
44723;DHT22;30451;48.638;10.624;2023-06-22T08:15:02;28.50;49.50
44723;DHT22;30451;48.638;10.624;2023-06-22T08:17:28;28.40;49.50
44723;DHT22;30451;48.638;10.624;2023-06-22T08:19:53;28.50;49.50
44723;DHT22;30451;48.638;10.624;2023-06-22T08:22:19;28.50;49.60
44723;DHT22;30451;48.638;10.624;2023-06-22T08:24:44;28.50;49.50
44723;DHT22;30451;48.638;10.624;2023-06-22T08:27:10;28.40;49.50
44723;DHT22;30451;48.638;10.624;2023-06-22T08:29:40;28.40;49.50
44723;DHT22;30451;48.638;10.624;2023-06-22T08:32:10;28.50;49.60
44723;DHT22;30451;48.638;10.624;2023-06-22T08:34:36;28.40;49.50
44723;DHT22;30451;48.638;10.624;2023-06-22T08:37:01;28.40;49.50
44723;DHT22;30451;48.638;10.624;2023-06-22T08:39:31;28.40;49.50
44723;DHT22;30451;48.638;10.624;2023-06-22T08:41:57;28.40;49.50
44723;DHT22;30451;48.638;10.624;2023-06-22T08:44:22;28.40;49.50
44723;DHT22;30451;48.638;10.624;2023-06-22T08:46:48;28.40;49.50
44723;DHT22;30451;48.638;10.624;2023-06-22T08:49:13;28.40;49.60
44723;DHT22;30451;48.638;10.624;2023-06-22T08:51:39;28.40;49.60
44723;DHT22;30451;48.638;10.624;2023-06-22T08:54:04;28.40;49.60
44723;DHT22;30451;48.638;10.624;2023-06-22T08:56:30;28.40;49.60
44723;DHT22;30451;48.638;10.624;2023-06-22T08:58:56;28.40;49.60
44723;DHT22;30451;48.638;10.624;2023-06-22T09:01:21;28.40;49.50
44723;DHT22;30451;48.638;10.624;2023-06-22T09:03:47;28.40;49.60
44723;DHT22;30451;48.638;10.624;2023-06-22T09:06:20;28.40;49.60
44723;DHT22;30451;48.638;10.624;2023-06-22T09:08:46;28.40;49.60
44723;DHT22;30451;48.638;10.624;2023-06-22T09:11:12;28.40;49.60
44723;DHT22;30451;48.638;10.624;2023-06-22T09:13:37;28.40;49.60
44723;DHT22;30451;48.638;10.624;2023-06-22T09:16:03;28.40;49.60
44723;DHT22;30451;48.638;10.624;2023-06-22T09:18:28;28.30;49.60
44723;DHT22;30451;48.638;10.624;2023-06-22T09:20:54;28.40;49.70
44723;DHT22;30451;48.638;10.624;2023-06-22T09:23:19;28.40;49.60
44723;DHT22;30451;48.638;10.624;2023-06-22T09:25:45;28.30;49.60
44723;DHT22;30451;48.638;10.624;2023-06-22T09:28:13;28.30;49.60
44723;DHT22;30451;48.638;10.624;2023-06-22T09:30:38;28.30;49.60
44723;DHT22;30451;48.638;10.624;2023-06-22T09:33:04;28.30;50.10
44723;DHT22;30451;48.638;10.624;2023-06-22T09:35:29;28.30;49.60
44723;DHT22;30451;48.638;10.624;2023-06-22T09:37:55;28.30;49.70
44723;DHT22;30451;48.638;10.624;2023-06-22T09:40:20;28.30;49.60
44723;DHT22;30451;48.638;10.624;2023-06-22T09:42:46;28.30;50.20
44723;DHT22;30451;48.638;10.624;2023-06-22T09:45:11;28.30;49.70
44723;DHT22;30451;48.638;10.624;2023-06-22T09:47:37;28.30;49.60
44723;DHT22;30451;48.638;10.624;2023-06-22T09:50:03;28.30;49.70
44723;DHT22;30451;48.638;10.624;2023-06-22T09:52:28;28.30;49.60
44723;DHT22;30451;48.638;10.624;2023-06-22T09:54:54;28.30;49.70
44723;DHT22;30451;48.638;10.624;2023-06-22T09:57:19;28.30;49.70
44723;DHT22;30451;48.638;10.624;2023-06-22T09:59:45;28.30;49.60
44723;DHT22;30451;48.638;10.624;2023-06-22T10:02:10;28.30;49.70
44723;DHT22;30451;48.638;10.624;2023-06-22T10:04:36;28.30;49.70
44723;DHT22;30451;48.638;10.624;2023-06-22T10:07:02;28.30;49.70
44723;DHT22;30451;48.638;10.624;2023-06-22T10:09:28;28.30;49.70
44723;DHT22;30451;48.638;10.624;2023-06-22T10:11:53;28.30;49.70
44723;DHT22;30451;48.638;10.624;2023-06-22T10:14:19;28.30;49.70
44723;DHT22;30451;48.638;10.624;2023-06-22T10:16:45;28.30;49.70
44723;DHT22;30451;48.638;10.624;2023-06-22T10:19:10;28.30;49.70
44723;DHT22;30451;48.638;10.624;2023-06-22T10:21:36;28.30;49.70
44723;DHT22;30451;48.638;10.624;2023-06-22T10:24:01;28.30;49.70
44723;DHT22;30451;48.638;10.624;2023-06-22T10:26:33;28.30;49.70
44723;DHT22;30451;48.638;10.624;2023-06-22T10:28:59;28.30;49.70
44723;DHT22;30451;48.638;10.624;2023-06-22T10:31:25;28.30;49.70
44723;DHT22;30451;48.638;10.624;2023-06-22T10:33:51;28.30;50.30
44723;DHT22;30451;48.638;10.624;2023-06-22T10:36:16;28.30;49.70
44723;DHT22;30451;48.638;10.624;2023-06-22T10:38:42;28.30;49.70
44723;DHT22;30451;48.638;10.624;2023-06-22T10:41:07;28.30;49.70
44723;DHT22;30451;48.638;10.624;2023-06-22T10:43:33;28.30;49.70
44723;DHT22;30451;48.638;10.624;2023-06-22T10:45:58;28.30;49.70
44723;DHT22;30451;48.638;10.624;2023-06-22T10:48:24;28.30;49.70
44723;DHT22;30451;48.638;10.624;2023-06-22T10:50:49;28.30;49.70
44723;DHT22;30451;48.638;10.624;2023-06-22T10:53:15;28.30;49.70
44723;DHT22;30451;48.638;10.624;2023-06-22T10:55:40;28.30;49.70
44723;DHT22;30451;48.638;10.624;2023-06-22T10:58:06;28.30;49.70
44723;DHT22;30451;48.638;10.624;2023-06-22T11:00:32;28.30;49.60
44723;DHT22;30451;48.638;10.624;2023-06-22T11:02:57;28.30;49.60
44723;DHT22;30451;48.638;10.624;2023-06-22T11:05:23;28.30;49.70
44723;DHT22;30451;48.638;10.624;2023-06-22T11:07:49;28.30;49.60
44723;DHT22;30451;48.638;10.624;2023-06-22T11:10:15;28.30;49.60
44723;DHT22;30451;48.638;10.624;2023-06-22T11:12:40;28.30;49.60
44723;DHT22;30451;48.638;10.624;2023-06-22T11:15:07;28.30;49.60
44723;DHT22;30451;48.638;10.624;2023-06-22T11:17:33;28.30;49.60
44723;DHT22;30451;48.638;10.624;2023-06-22T11:19:58;28.30;49.60
44723;DHT22;30451;48.638;10.624;2023-06-22T11:22:25;28.30;49.60
44723;DHT22;30451;48.638;10.624;2023-06-22T11:24:51;28.30;49.60
44723;DHT22;30451;48.638;10.624;2023-06-22T11:27:16;28.30;49.60
44723;DHT22;30451;48.638;10.624;2023-06-22T11:29:42;28.30;49.60
44723;DHT22;30451;48.638;10.624;2023-06-22T11:32:07;28.30;49.60
44723;DHT22;30451;48.638;10.624;2023-06-22T11:34:33;28.30;49.60
44723;DHT22;30451;48.638;10.624;2023-06-22T11:36:58;28.30;49.60
44723;DHT22;30451;48.638;10.624;2023-06-22T11:39:24;28.30;49.60
44723;DHT22;30451;48.638;10.624;2023-06-22T11:41:49;28.30;49.60
44723;DHT22;30451;48.638;10.624;2023-06-22T11:44:15;28.40;49.70
44723;DHT22;30451;48.638;10.624;2023-06-22T11:46:40;28.40;49.70
44723;DHT22;30451;48.638;10.624;2023-06-22T11:49:06;28.30;49.60
44723;DHT22;30451;48.638;10.624;2023-06-22T11:51:32;28.30;49.60
44723;DHT22;30451;48.638;10.624;2023-06-22T11:53:57;28.30;49.60
44723;DHT22;30451;48.638;10.624;2023-06-22T11:56:24;28.40;49.70
44723;DHT22;30451;48.638;10.624;2023-06-22T11:58:49;28.40;49.70
44723;DHT22;30451;48.638;10.624;2023-06-22T12:01:15;28.30;49.60
44723;DHT22;30451;48.638;10.624;2023-06-22T12:03:41;28.30;49.60
44723;DHT22;30451;48.638;10.624;2023-06-22T12:06:08;28.40;49.70
44723;DHT22;30451;48.638;10.624;2023-06-22T12:08:34;28.30;49.60
44723;DHT22;30451;48.638;10.624;2023-06-22T12:10:59;28.40;49.70
44723;DHT22;30451;48.638;10.624;2023-06-22T12:13:25;28.40;49.70
44723;DHT22;30451;48.638;10.624;2023-06-22T12:15:50;28.40;49.70
44723;DHT22;30451;48.638;10.624;2023-06-22T12:18:17;28.30;49.60
44723;DHT22;30451;48.638;10.624;2023-06-22T12:20:46;28.40;49.70
44723;DHT22;30451;48.638;10.624;2023-06-22T12:23:11;28.40;49.70
44723;DHT22;30451;48.638;10.624;2023-06-22T12:25:37;28.30;49.60
44723;DHT22;30451;48.638;10.624;2023-06-22T12:28:03;28.40;49.70
44723;DHT22;30451;48.638;10.624;2023-06-22T12:30:30;28.40;49.70
44723;DHT22;30451;48.638;10.624;2023-06-22T12:32:55;28.40;49.70
44723;DHT22;30451;48.638;10.624;2023-06-22T12:35:21;28.40;49.70
44723;DHT22;30451;48.638;10.624;2023-06-22T12:37:46;28.40;49.70
44723;DHT22;30451;48.638;10.624;2023-06-22T12:40:12;28.40;50.20
44723;DHT22;30451;48.638;10.624;2023-06-22T12:42:37;28.40;49.70
44723;DHT22;30451;48.638;10.624;2023-06-22T12:45:03;28.40;49.70
44723;DHT22;30451;48.638;10.624;2023-06-22T12:47:29;28.40;49.70
44723;DHT22;30451;48.638;10.624;2023-06-22T12:49:54;28.40;49.60
44723;DHT22;30451;48.638;10.624;2023-06-22T12:52:20;28.40;49.70
44723;DHT22;30451;48.638;10.624;2023-06-22T12:54:45;28.40;49.60
44723;DHT22;30451;48.638;10.624;2023-06-22T12:57:10;28.40;49.70
44723;DHT22;30451;48.638;10.624;2023-06-22T12:59:36;28.40;49.60
44723;DHT22;30451;48.638;10.624;2023-06-22T13:02:01;28.40;49.70
44723;DHT22;30451;48.638;10.624;2023-06-22T13:04:27;28.40;49.70
44723;DHT22;30451;48.638;10.624;2023-06-22T13:06:52;28.40;49.70
44723;DHT22;30451;48.638;10.624;2023-06-22T13:09:18;28.40;50.20
44723;DHT22;30451;48.638;10.624;2023-06-22T13:11:44;28.40;49.70
44723;DHT22;30451;48.638;10.624;2023-06-22T13:14:09;28.40;49.70
44723;DHT22;30451;48.638;10.624;2023-06-22T13:16:35;28.40;49.70
44723;DHT22;30451;48.638;10.624;2023-06-22T13:19:00;28.40;49.70
44723;DHT22;30451;48.638;10.624;2023-06-22T13:21:26;28.40;49.70
44723;DHT22;30451;48.638;10.624;2023-06-22T13:23:51;28.40;50.20
44723;DHT22;30451;48.638;10.624;2023-06-22T13:26:17;28.40;49.70
44723;DHT22;30451;48.638;10.624;2023-06-22T13:28:43;28.40;49.70
44723;DHT22;30451;48.638;10.624;2023-06-22T13:31:08;28.40;49.70
44723;DHT22;30451;48.638;10.624;2023-06-22T13:33:34;28.40;49.70
44723;DHT22;30451;48.638;10.624;2023-06-22T13:35:59;28.40;49.70
44723;DHT22;30451;48.638;10.624;2023-06-22T13:38:24;28.40;49.70
44723;DHT22;30451;48.638;10.624;2023-06-22T13:40:50;28.40;49.70
44723;DHT22;30451;48.638;10.624;2023-06-22T13:43:16;28.40;49.70
44723;DHT22;30451;48.638;10.624;2023-06-22T13:45:41;28.40;49.70
44723;DHT22;30451;48.638;10.624;2023-06-22T13:48:07;28.40;49.70
44723;DHT22;30451;48.638;10.624;2023-06-22T13:50:33;28.50;49.70
44723;DHT22;30451;48.638;10.624;2023-06-22T13:52:59;28.50;49.70
44723;DHT22;30451;48.638;10.624;2023-06-22T13:55:24;28.50;49.70
44723;DHT22;30451;48.638;10.624;2023-06-22T13:57:50;28.50;49.80
44723;DHT22;30451;48.638;10.624;2023-06-22T14:00:16;28.50;49.70
44723;DHT22;30451;48.638;10.624;2023-06-22T14:02:42;28.50;49.70
44723;DHT22;30451;48.638;10.624;2023-06-22T14:05:07;28.50;49.80
44723;DHT22;30451;48.638;10.624;2023-06-22T14:07:33;28.50;49.70
44723;DHT22;30451;48.638;10.624;2023-06-22T14:09:59;28.50;49.70
44723;DHT22;30451;48.638;10.624;2023-06-22T14:12:24;28.50;49.70
44723;DHT22;30451;48.638;10.624;2023-06-22T14:14:50;28.50;49.70
44723;DHT22;30451;48.638;10.624;2023-06-22T14:17:15;28.50;49.70
44723;DHT22;30451;48.638;10.624;2023-06-22T14:19:41;28.50;49.70
44723;DHT22;30451;48.638;10.624;2023-06-22T14:22:06;28.50;49.70
44723;DHT22;30451;48.638;10.624;2023-06-22T14:24:32;28.50;49.80
44723;DHT22;30451;48.638;10.624;2023-06-22T14:26:58;28.50;49.70
44723;DHT22;30451;48.638;10.624;2023-06-22T14:29:25;28.50;49.70
44723;DHT22;30451;48.638;10.624;2023-06-22T14:31:50;28.50;49.80
44723;DHT22;30451;48.638;10.624;2023-06-22T14:34:16;28.50;49.70
44723;DHT22;30451;48.638;10.624;2023-06-22T14:36:42;28.50;49.70
44723;DHT22;30451;48.638;10.624;2023-06-22T14:39:08;28.50;49.80
44723;DHT22;30451;48.638;10.624;2023-06-22T14:41:33;28.50;49.80
44723;DHT22;30451;48.638;10.624;2023-06-22T14:43:59;28.50;49.80
44723;DHT22;30451;48.638;10.624;2023-06-22T14:46:24;28.50;49.80
44723;DHT22;30451;48.638;10.624;2023-06-22T14:48:50;28.50;49.80
44723;DHT22;30451;48.638;10.624;2023-06-22T14:51:15;28.50;49.80
44723;DHT22;30451;48.638;10.624;2023-06-22T14:53:41;28.50;49.70
44723;DHT22;30451;48.638;10.624;2023-06-22T14:56:07;28.60;49.80
44723;DHT22;30451;48.638;10.624;2023-06-22T14:58:33;28.50;49.80
44723;DHT22;30451;48.638;10.624;2023-06-22T15:00:59;28.50;49.80
44723;DHT22;30451;48.638;10.624;2023-06-22T15:03:24;28.50;49.80
44723;DHT22;30451;48.638;10.624;2023-06-22T15:05:53;28.50;49.80
44723;DHT22;30451;48.638;10.624;2023-06-22T15:08:19;28.50;49.70
44723;DHT22;30451;48.638;10.624;2023-06-22T15:10:44;28.60;49.90
44723;DHT22;30451;48.638;10.624;2023-06-22T15:13:10;28.60;49.80
44723;DHT22;30451;48.638;10.624;2023-06-22T15:15:36;28.50;49.80
44723;DHT22;30451;48.638;10.624;2023-06-22T15:18:01;28.60;49.80